sensor_id;sensor_type;location;lat;lon;timestamp;temperature;humidity
70867;HTU21D;58487;53.474;49.470;2023-02-11T00:00:24;-5.97;118.99
70867;HTU21D;58487;53.474;49.470;2023-02-11T00:02:50;-5.93;118.99
70867;HTU21D;58487;53.474;49.470;2023-02-11T00:05:16;-5.91;118.99
70867;HTU21D;58487;53.474;49.470;2023-02-11T00:07:42;-6.02;118.99
70867;HTU21D;58487;53.474;49.470;2023-02-11T00:10:08;-5.93;118.99
70867;HTU21D;58487;53.474;49.470;2023-02-11T00:12:54;-5.92;118.99
70867;HTU21D;58487;53.474;49.470;2023-02-11T00:15:22;-5.92;118.99
70867;HTU21D;58487;53.474;49.470;2023-02-11T00:17:48;-5.88;118.99
70867;HTU21D;58487;53.474;49.470;2023-02-11T00:20:14;-5.86;118.99
70867;HTU21D;58487;53.474;49.470;2023-02-11T00:22:40;-5.91;118.99
70867;HTU21D;58487;53.474;49.470;2023-02-11T00:25:06;-5.82;118.99
70867;HTU21D;58487;53.474;49.470;2023-02-11T00:27:32;-5.84;118.99
70867;HTU21D;58487;53.474;49.470;2023-02-11T00:29:58;-5.83;118.99
70867;HTU21D;58487;53.474;49.470;2023-02-11T00:32:26;-5.87;118.99
70867;HTU21D;58487;53.474;49.470;2023-02-11T00:34:52;-5.83;118.99
70867;HTU21D;58487;53.474;49.470;2023-02-11T00:37:20;-5.88;118.99
70867;HTU21D;58487;53.474;49.470;2023-02-11T00:39:46;-5.84;118.99
70867;HTU21D;58487;53.474;49.470;2023-02-11T00:42:13;-5.74;118.99
70867;HTU21D;58487;53.474;49.470;2023-02-11T00:44:39;-5.76;118.99
70867;HTU21D;58487;53.474;49.470;2023-02-11T00:47:05;-5.82;118.99
70867;HTU21D;58487;53.474;49.470;2023-02-11T00:49:31;-5.77;118.99
70867;HTU21D;58487;53.474;49.470;2023-02-11T00:51:57;-5.70;118.99
70867;HTU21D;58487;53.474;49.470;2023-02-11T00:54:23;-5.70;118.99
70867;HTU21D;58487;53.474;49.470;2023-02-11T00:56:49;-5.68;118.99
70867;HTU21D;58487;53.474;49.470;2023-02-11T00:59:15;-5.54;118.99
70867;HTU21D;58487;53.474;49.470;2023-02-11T01:01:41;-5.50;118.99
70867;HTU21D;58487;53.474;49.470;2023-02-11T01:04:07;-5.57;118.99
70867;HTU21D;58487;53.474;49.470;2023-02-11T01:06:33;-5.57;118.99
70867;HTU21D;58487;53.474;49.470;2023-02-11T01:08:59;-5.64;118.99
70867;HTU21D;58487;53.474;49.470;2023-02-11T01:11:25;-5.50;118.99
70867;HTU21D;58487;53.474;49.470;2023-02-11T01:13:51;-5.57;118.99
70867;HTU21D;58487;53.474;49.470;2023-02-11T01:16:18;-5.55;118.99
70867;HTU21D;58487;53.474;49.470;2023-02-11T01:18:44;-5.49;118.99
70867;HTU21D;58487;53.474;49.470;2023-02-11T01:21:10;-5.48;118.99
70867;HTU21D;58487;53.474;49.470;2023-02-11T01:23:37;-5.37;118.99
70867;HTU21D;58487;53.474;49.470;2023-02-11T01:26:03;-5.41;118.99
70867;HTU21D;58487;53.474;49.470;2023-02-11T01:28:30;-5.39;118.99
70867;HTU21D;58487;53.474;49.470;2023-02-11T01:30:56;-5.35;118.99
70867;HTU21D;58487;53.474;49.470;2023-02-11T01:33:23;-5.22;118.99
70867;HTU21D;58487;53.474;49.470;2023-02-11T01:35:49;-5.20;118.99
70867;HTU21D;58487;53.474;49.470;2023-02-11T01:38:18;-5.16;118.99
70867;HTU21D;58487;53.474;49.470;2023-02-11T01:40:53;-5.20;118.99
70867;HTU21D;58487;53.474;49.470;2023-02-11T01:43:20;-5.12;118.99
70867;HTU21D;58487;53.474;49.470;2023-02-11T01:48:15;-5.11;118.99
70867;HTU21D;58487;53.474;49.470;2023-02-11T01:50:44;-5.12;118.99
70867;HTU21D;58487;53.474;49.470;2023-02-11T01:53:11;-5.02;118.99
70867;HTU21D;58487;53.474;49.470;2023-02-11T01:55:56;-4.97;118.99
70867;HTU21D;58487;53.474;49.470;2023-02-11T01:58:43;-5.17;118.99
70867;HTU21D;58487;53.474;49.470;2023-02-11T02:01:13;-5.16;118.99
70867;HTU21D;58487;53.474;49.470;2023-02-11T02:03:42;-5.13;118.99
70867;HTU21D;58487;53.474;49.470;2023-02-11T02:06:29;-5.08;118.99
70867;HTU21D;58487;53.474;49.470;2023-02-11T02:09:05;-5.01;118.99
70867;HTU21D;58487;53.474;49.470;2023-02-11T02:11:31;-5.05;118.99
70867;HTU21D;58487;53.474;49.470;2023-02-11T02:13:58;-4.97;118.99
70867;HTU21D;58487;53.474;49.470;2023-02-11T02:16:31;-4.91;118.99
70867;HTU21D;58487;53.474;49.470;2023-02-11T02:19:19;-5.00;118.99
70867;HTU21D;58487;53.474;49.470;2023-02-11T02:40:45;-4.73;118.99
70867;HTU21D;58487;53.474;49.470;2023-02-11T02:43:14;-4.69;118.99
70867;HTU21D;58487;53.474;49.470;2023-02-11T02:45:40;-4.66;118.99
70867;HTU21D;58487;53.474;49.470;2023-02-11T02:48:20;-4.63;118.99
70867;HTU21D;58487;53.474;49.470;2023-02-11T02:50:48;-4.68;118.99
70867;HTU21D;58487;53.474;49.470;2023-02-11T02:53:31;-4.66;118.99
70867;HTU21D;58487;53.474;49.470;2023-02-11T02:56:13;-4.61;118.99
70867;HTU21D;58487;53.474;49.470;2023-02-11T02:58:50;-4.64;118.99
70867;HTU21D;58487;53.474;49.470;2023-02-11T03:02:25;-4.56;118.99
70867;HTU21D;58487;53.474;49.470;2023-02-11T03:10:08;-4.60;118.99
70867;HTU21D;58487;53.474;49.470;2023-02-11T03:12:37;-4.51;118.99
70867;HTU21D;58487;53.474;49.470;2023-02-11T03:15:05;-4.51;118.99
70867;HTU21D;58487;53.474;49.470;2023-02-11T03:17:33;-4.52;118.99
70867;HTU21D;58487;53.474;49.470;2023-02-11T03:20:01;-4.54;118.99
70867;HTU21D;58487;53.474;49.470;2023-02-11T03:22:35;-4.59;118.99
70867;HTU21D;58487;53.474;49.470;2023-02-11T03:25:03;-4.60;118.99
70867;HTU21D;58487;53.474;49.470;2023-02-11T03:30:29;-4.55;118.99
70867;HTU21D;58487;53.474;49.470;2023-02-11T03:33:06;-4.52;118.99
70867;HTU21D;58487;53.474;49.470;2023-02-11T03:35:49;-4.45;118.99
70867;HTU21D;58487;53.474;49.470;2023-02-11T03:38:22;-4.51;118.99
70867;HTU21D;58487;53.474;49.470;2023-02-11T03:40:50;-4.52;118.99
70867;HTU21D;58487;53.474;49.470;2023-02-11T03:43:22;-4.44;118.99
70867;HTU21D;58487;53.474;49.470;2023-02-11T03:45:52;-4.49;118.99
70867;HTU21D;58487;53.474;49.470;2023-02-11T03:48:26;-4.40;118.99
70867;HTU21D;58487;53.474;49.470;2023-02-11T03:50:55;-4.36;118.99
70867;HTU21D;58487;53.474;49.470;2023-02-11T03:53:22;-4.39;118.99
70867;HTU21D;58487;53.474;49.470;2023-02-11T03:55:50;-4.37;118.99
70867;HTU21D;58487;53.474;49.470;2023-02-11T03:58:17;-4.40;118.99
70867;HTU21D;58487;53.474;49.470;2023-02-11T04:00:43;-4.37;118.99
70867;HTU21D;58487;53.474;49.470;2023-02-11T04:03:10;-4.39;118.99
70867;HTU21D;58487;53.474;49.470;2023-02-11T04:05:37;-4.36;118.99
70867;HTU21D;58487;53.474;49.470;2023-02-11T04:08:04;-4.26;118.99
70867;HTU21D;58487;53.474;49.470;2023-02-11T04:10:30;-4.22;118.99
70867;HTU21D;58487;53.474;49.470;2023-02-11T04:12:56;-4.23;118.99
70867;HTU21D;58487;53.474;49.470;2023-02-11T04:15:23;-4.25;118.99
70867;HTU21D;58487;53.474;49.470;2023-02-11T04:17:49;-4.22;118.99
70867;HTU21D;58487;53.474;49.470;2023-02-11T04:20:15;-4.17;118.99
70867;HTU21D;58487;53.474;49.470;2023-02-11T04:22:41;-4.21;118.99
70867;HTU21D;58487;53.474;49.470;2023-02-11T04:25:08;-4.17;118.99
70867;HTU21D;58487;53.474;49.470;2023-02-11T04:27:34;-4.15;118.99
70867;HTU21D;58487;53.474;49.470;2023-02-11T04:30:01;-4.19;118.99
70867;HTU21D;58487;53.474;49.470;2023-02-11T04:32:27;-4.10;118.99
70867;HTU21D;58487;53.474;49.470;2023-02-11T04:34:53;-4.15;118.99
70867;HTU21D;58487;53.474;49.470;2023-02-11T04:37:20;-4.09;118.99
70867;HTU21D;58487;53.474;49.470;2023-02-11T04:39:46;-4.20;118.99
70867;HTU21D;58487;53.474;49.470;2023-02-11T04:42:12;-4.11;118.99
70867;HTU21D;58487;53.474;49.470;2023-02-11T04:44:38;-4.13;118.99
70867;HTU21D;58487;53.474;49.470;2023-02-11T04:47:04;-4.13;118.99
70867;HTU21D;58487;53.474;49.470;2023-02-11T04:49:30;-4.05;118.99
70867;HTU21D;58487;53.474;49.470;2023-02-11T04:51:56;-4.10;118.99
70867;HTU21D;58487;53.474;49.470;2023-02-11T04:54:22;-4.12;118.99
70867;HTU21D;58487;53.474;49.470;2023-02-11T04:56:48;-4.02;118.99
70867;HTU21D;58487;53.474;49.470;2023-02-11T04:59:14;-4.04;118.99
70867;HTU21D;58487;53.474;49.470;2023-02-11T05:01:40;-4.07;118.99
70867;HTU21D;58487;53.474;49.470;2023-02-11T05:04:06;-4.09;118.99
70867;HTU21D;58487;53.474;49.470;2023-02-11T05:06:32;-4.07;118.99
70867;HTU21D;58487;53.474;49.470;2023-02-11T05:08:58;-4.09;118.99
70867;HTU21D;58487;53.474;49.470;2023-02-11T05:11:25;-4.05;118.99
70867;HTU21D;58487;53.474;49.470;2023-02-11T05:13:51;-4.06;118.99
70867;HTU21D;58487;53.474;49.470;2023-02-11T05:16:17;-4.02;118.99
70867;HTU21D;58487;53.474;49.470;2023-02-11T05:18:44;-3.97;118.99
70867;HTU21D;58487;53.474;49.470;2023-02-11T05:21:16;-3.99;118.99
70867;HTU21D;58487;53.474;49.470;2023-02-11T05:23:43;-3.99;118.99
70867;HTU21D;58487;53.474;49.470;2023-02-11T05:26:10;-3.97;118.99
70867;HTU21D;58487;53.474;49.470;2023-02-11T05:28:37;-4.01;118.99
70867;HTU21D;58487;53.474;49.470;2023-02-11T05:31:04;-4.05;118.99
70867;HTU21D;58487;53.474;49.470;2023-02-11T05:33:30;-4.01;118.99
70867;HTU21D;58487;53.474;49.470;2023-02-11T05:36:01;-4.00;118.99
70867;HTU21D;58487;53.474;49.470;2023-02-11T05:38:28;-3.98;118.99
70867;HTU21D;58487;53.474;49.470;2023-02-11T05:40:54;-4.00;118.99
70867;HTU21D;58487;53.474;49.470;2023-02-11T05:43:20;-4.00;118.99
70867;HTU21D;58487;53.474;49.470;2023-02-11T05:45:46;-4.01;118.99
70867;HTU21D;58487;53.474;49.470;2023-02-11T05:48:12;-3.96;118.99
70867;HTU21D;58487;53.474;49.470;2023-02-11T05:50:38;-3.91;118.99
70867;HTU21D;58487;53.474;49.470;2023-02-11T05:53:06;-3.96;118.99
70867;HTU21D;58487;53.474;49.470;2023-02-11T05:55:32;-3.84;118.99
70867;HTU21D;58487;53.474;49.470;2023-02-11T05:57:58;-3.85;118.99
70867;HTU21D;58487;53.474;49.470;2023-02-11T06:00:24;-3.79;118.99
70867;HTU21D;58487;53.474;49.470;2023-02-11T06:02:51;-3.82;118.99
70867;HTU21D;58487;53.474;49.470;2023-02-11T06:05:17;-3.79;118.99
70867;HTU21D;58487;53.474;49.470;2023-02-11T06:07:43;-3.77;118.99
70867;HTU21D;58487;53.474;49.470;2023-02-11T06:10:10;-3.78;118.99
70867;HTU21D;58487;53.474;49.470;2023-02-11T06:12:37;-3.81;118.99
70867;HTU21D;58487;53.474;49.470;2023-02-11T06:15:04;-3.85;118.99
70867;HTU21D;58487;53.474;49.470;2023-02-11T06:17:30;-3.84;118.99
70867;HTU21D;58487;53.474;49.470;2023-02-11T06:19:59;-3.83;118.99
70867;HTU21D;58487;53.474;49.470;2023-02-11T06:22:26;-3.78;118.99
70867;HTU21D;58487;53.474;49.470;2023-02-11T06:24:52;-3.84;118.99
70867;HTU21D;58487;53.474;49.470;2023-02-11T06:27:25;-3.81;118.99
70867;HTU21D;58487;53.474;49.470;2023-02-11T06:29:57;-3.79;118.99
70867;HTU21D;58487;53.474;49.470;2023-02-11T06:32:23;-3.78;118.99
70867;HTU21D;58487;53.474;49.470;2023-02-11T06:34:49;-3.72;118.99
70867;HTU21D;58487;53.474;49.470;2023-02-11T06:37:15;-3.78;118.99
70867;HTU21D;58487;53.474;49.470;2023-02-11T06:39:43;-3.70;118.99
70867;HTU21D;58487;53.474;49.470;2023-02-11T06:42:09;-3.72;118.99
70867;HTU21D;58487;53.474;49.470;2023-02-11T06:44:36;-3.70;118.99
70867;HTU21D;58487;53.474;49.470;2023-02-11T06:47:02;-3.71;118.99
70867;HTU21D;58487;53.474;49.470;2023-02-11T06:49:28;-3.62;118.99
70867;HTU21D;58487;53.474;49.470;2023-02-11T06:51:54;-3.58;118.99
70867;HTU21D;58487;53.474;49.470;2023-02-11T06:54:20;-3.53;118.99
70867;HTU21D;58487;53.474;49.470;2023-02-11T06:56:46;-3.49;118.99
70867;HTU21D;58487;53.474;49.470;2023-02-11T06:59:17;-3.47;118.99
70867;HTU21D;58487;53.474;49.470;2023-02-11T07:01:43;-3.38;118.99
70867;HTU21D;58487;53.474;49.470;2023-02-11T07:04:09;-3.47;118.99
70867;HTU21D;58487;53.474;49.470;2023-02-11T07:06:35;-3.35;118.99
70867;HTU21D;58487;53.474;49.470;2023-02-11T07:09:03;-3.24;118.99
70867;HTU21D;58487;53.474;49.470;2023-02-11T07:11:30;-3.35;118.99
70867;HTU21D;58487;53.474;49.470;2023-02-11T07:14:05;-3.20;118.99
70867;HTU21D;58487;53.474;49.470;2023-02-11T07:16:33;-3.21;118.99
70867;HTU21D;58487;53.474;49.470;2023-02-11T07:19:00;-3.08;118.99
70867;HTU21D;58487;53.474;49.470;2023-02-11T07:21:26;-2.97;118.99
70867;HTU21D;58487;53.474;49.470;2023-02-11T07:23:53;-3.05;118.99
70867;HTU21D;58487;53.474;49.470;2023-02-11T07:26:21;-2.92;118.99
70867;HTU21D;58487;53.474;49.470;2023-02-11T07:28:51;-2.87;118.99
70867;HTU21D;58487;53.474;49.470;2023-02-11T07:31:20;-2.87;118.99
70867;HTU21D;58487;53.474;49.470;2023-02-11T07:33:47;-2.84;118.99
70867;HTU21D;58487;53.474;49.470;2023-02-11T07:36:14;-2.96;118.99
70867;HTU21D;58487;53.474;49.470;2023-02-11T07:38:41;-2.98;118.99
70867;HTU21D;58487;53.474;49.470;2023-02-11T07:41:15;-3.11;118.99
70867;HTU21D;58487;53.474;49.470;2023-02-11T07:43:42;-3.03;118.99
70867;HTU21D;58487;53.474;49.470;2023-02-11T07:46:16;-3.15;118.99
70867;HTU21D;58487;53.474;49.470;2023-02-11T07:48:43;-3.17;118.99
70867;HTU21D;58487;53.474;49.470;2023-02-11T07:51:15;-3.24;118.99
70867;HTU21D;58487;53.474;49.470;2023-02-11T07:53:42;-3.28;118.99
70867;HTU21D;58487;53.474;49.470;2023-02-11T07:56:09;-3.30;118.99
70867;HTU21D;58487;53.474;49.470;2023-02-11T07:58:35;-3.39;118.99
70867;HTU21D;58487;53.474;49.470;2023-02-11T08:01:06;-3.37;118.99
70867;HTU21D;58487;53.474;49.470;2023-02-11T08:03:34;-3.43;118.99
70867;HTU21D;58487;53.474;49.470;2023-02-11T08:06:08;-3.33;118.99
70867;HTU21D;58487;53.474;49.470;2023-02-11T08:08:35;-3.26;118.99
70867;HTU21D;58487;53.474;49.470;2023-02-11T08:11:09;-3.18;118.99
70867;HTU21D;58487;53.474;49.470;2023-02-11T08:13:36;-3.16;118.99
70867;HTU21D;58487;53.474;49.470;2023-02-11T08:16:03;-3.11;118.99
70867;HTU21D;58487;53.474;49.470;2023-02-11T08:18:30;-3.16;118.99
70867;HTU21D;58487;53.474;49.470;2023-02-11T08:21:03;-3.05;118.99
70867;HTU21D;58487;53.474;49.470;2023-02-11T08:23:29;-2.97;118.99
70867;HTU21D;58487;53.474;49.470;2023-02-11T08:26:00;-3.03;118.99
70867;HTU21D;58487;53.474;49.470;2023-02-11T08:28:26;-2.94;118.99
70867;HTU21D;58487;53.474;49.470;2023-02-11T08:30:52;-3.01;118.99
70867;HTU21D;58487;53.474;49.470;2023-02-11T08:33:18;-2.91;118.99
70867;HTU21D;58487;53.474;49.470;2023-02-11T08:35:44;-2.97;118.99
70867;HTU21D;58487;53.474;49.470;2023-02-11T08:38:10;-2.83;118.99
70867;HTU21D;58487;53.474;49.470;2023-02-11T08:40:36;-2.77;118.99
70867;HTU21D;58487;53.474;49.470;2023-02-11T08:43:02;-2.82;118.99
70867;HTU21D;58487;53.474;49.470;2023-02-11T08:45:30;-2.84;118.99
70867;HTU21D;58487;53.474;49.470;2023-02-11T08:47:56;-2.86;118.99
70867;HTU21D;58487;53.474;49.470;2023-02-11T08:50:22;-2.75;118.99
70867;HTU21D;58487;53.474;49.470;2023-02-11T08:52:48;-2.60;118.99
70867;HTU21D;58487;53.474;49.470;2023-02-11T08:55:16;-2.54;118.99
70867;HTU21D;58487;53.474;49.470;2023-02-11T08:57:42;-2.48;118.99
70867;HTU21D;58487;53.474;49.470;2023-02-11T09:00:09;-2.58;118.99
70867;HTU21D;58487;53.474;49.470;2023-02-11T09:02:35;-2.61;118.99
70867;HTU21D;58487;53.474;49.470;2023-02-11T09:05:01;-2.46;118.99
70867;HTU21D;58487;53.474;49.470;2023-02-11T09:07:28;-2.36;118.99
70867;HTU21D;58487;53.474;49.470;2023-02-11T09:09:55;-2.46;118.99
70867;HTU21D;58487;53.474;49.470;2023-02-11T09:12:21;-2.49;118.99
70867;HTU21D;58487;53.474;49.470;2023-02-11T09:14:47;-2.49;118.99
70867;HTU21D;58487;53.474;49.470;2023-02-11T09:17:13;-2.57;118.99
70867;HTU21D;58487;53.474;49.470;2023-02-11T09:19:39;-2.46;118.99
70867;HTU21D;58487;53.474;49.470;2023-02-11T09:22:05;-2.57;118.99
70867;HTU21D;58487;53.474;49.470;2023-02-11T09:24:31;-2.67;118.99
70867;HTU21D;58487;53.474;49.470;2023-02-11T09:26:57;-2.60;118.99
70867;HTU21D;58487;53.474;49.470;2023-02-11T09:29:23;-2.62;118.99
70867;HTU21D;58487;53.474;49.470;2023-02-11T09:31:50;-2.67;118.99
70867;HTU21D;58487;53.474;49.470;2023-02-11T09:34:19;-2.74;118.99
70867;HTU21D;58487;53.474;49.470;2023-02-11T09:36:45;-2.87;118.99
70867;HTU21D;58487;53.474;49.470;2023-02-11T09:39:15;-2.88;118.99
70867;HTU21D;58487;53.474;49.470;2023-02-11T09:44:39;-3.01;118.99
70867;HTU21D;58487;53.474;49.470;2023-02-11T09:47:23;-2.98;118.99
70867;HTU21D;58487;53.474;49.470;2023-02-11T09:49:56;-2.95;118.99
70867;HTU21D;58487;53.474;49.470;2023-02-11T09:55:31;-2.94;118.99
70867;HTU21D;58487;53.474;49.470;2023-02-11T09:58:01;-2.89;118.99
70867;HTU21D;58487;53.474;49.470;2023-02-11T10:01:29;-2.92;118.99
70867;HTU21D;58487;53.474;49.470;2023-02-11T10:09:14;-3.11;118.99
70867;HTU21D;58487;53.474;49.470;2023-02-11T10:12:10;-3.06;118.99
70867;HTU21D;58487;53.474;49.470;2023-02-11T10:23:04;-3.07;118.99
70867;HTU21D;58487;53.474;49.470;2023-02-11T10:25:52;-3.07;118.99
70867;HTU21D;58487;53.474;49.470;2023-02-11T10:28:22;-3.07;118.99
70867;HTU21D;58487;53.474;49.470;2023-02-11T10:31:10;-3.01;118.99
70867;HTU21D;58487;53.474;49.470;2023-02-11T10:34:00;-3.04;118.99
70867;HTU21D;58487;53.474;49.470;2023-02-11T10:36:30;-2.98;118.99
70867;HTU21D;58487;53.474;49.470;2023-02-11T10:38:58;-2.97;118.99
70867;HTU21D;58487;53.474;49.470;2023-02-11T10:41:32;-2.96;118.99
70867;HTU21D;58487;53.474;49.470;2023-02-11T10:44:00;-2.84;118.99
70867;HTU21D;58487;53.474;49.470;2023-02-11T10:46:30;-2.79;118.99
70867;HTU21D;58487;53.474;49.470;2023-02-11T10:48:57;-2.81;118.99
70867;HTU21D;58487;53.474;49.470;2023-02-11T10:51:30;-2.76;118.99
70867;HTU21D;58487;53.474;49.470;2023-02-11T10:56:30;-2.71;118.99
70867;HTU21D;58487;53.474;49.470;2023-02-11T11:01:55;-2.37;118.99
70867;HTU21D;58487;53.474;49.470;2023-02-11T11:04:36;-2.45;118.99
70867;HTU21D;58487;53.474;49.470;2023-02-11T11:12:46;-2.50;118.99
70867;HTU21D;58487;53.474;49.470;2023-02-11T11:15:19;-2.50;118.99
70867;HTU21D;58487;53.474;49.470;2023-02-11T11:17:48;-2.52;118.99
70867;HTU21D;58487;53.474;49.470;2023-02-11T11:20:29;-2.54;118.99
70867;HTU21D;58487;53.474;49.470;2023-02-11T11:23:22;-2.57;118.99
70867;HTU21D;58487;53.474;49.470;2023-02-11T11:26:10;-2.56;118.99
70867;HTU21D;58487;53.474;49.470;2023-02-11T11:29:01;-2.43;118.99
70867;HTU21D;58487;53.474;49.470;2023-02-11T11:31:44;-2.22;118.99
70867;HTU21D;58487;53.474;49.470;2023-02-11T11:36:51;-2.65;118.99
70867;HTU21D;58487;53.474;49.470;2023-02-11T11:39:21;-2.66;118.99
70867;HTU21D;58487;53.474;49.470;2023-02-11T11:41:59;-2.73;118.99
70867;HTU21D;58487;53.474;49.470;2023-02-11T11:53:03;-2.87;118.99
70867;HTU21D;58487;53.474;49.470;2023-02-11T11:55:37;-2.97;118.99
70867;HTU21D;58487;53.474;49.470;2023-02-11T11:58:16;-2.95;118.99
70867;HTU21D;58487;53.474;49.470;2023-02-11T12:01:04;-2.94;118.99
70867;HTU21D;58487;53.474;49.470;2023-02-11T12:13:28;-3.07;118.99
70867;HTU21D;58487;53.474;49.470;2023-02-11T12:16:40;-3.05;118.99
70867;HTU21D;58487;53.474;49.470;2023-02-11T12:38:41;-3.20;118.99
70867;HTU21D;58487;53.474;49.470;2023-02-11T12:41:29;-3.23;118.99
70867;HTU21D;58487;53.474;49.470;2023-02-11T12:59:28;-3.30;118.99
70867;HTU21D;58487;53.474;49.470;2023-02-11T13:02:10;-3.32;118.99
70867;HTU21D;58487;53.474;49.470;2023-02-11T13:04:47;-3.41;118.99
70867;HTU21D;58487;53.474;49.470;2023-02-11T13:07:57;-3.42;118.99
70867;HTU21D;58487;53.474;49.470;2023-02-11T13:10:32;-3.40;118.99
70867;HTU21D;58487;53.474;49.470;2023-02-11T13:13:04;-3.43;118.99
70867;HTU21D;58487;53.474;49.470;2023-02-11T13:16:03;-3.42;118.99
70867;HTU21D;58487;53.474;49.470;2023-02-11T13:19:27;-3.26;118.99
70867;HTU21D;58487;53.474;49.470;2023-02-11T13:30:34;-3.31;118.99
70867;HTU21D;58487;53.474;49.470;2023-02-11T13:33:03;-3.34;118.99
70867;HTU21D;58487;53.474;49.470;2023-02-11T13:35:39;-3.42;118.99
70867;HTU21D;58487;53.474;49.470;2023-02-11T13:38:19;-3.56;118.99
70867;HTU21D;58487;53.474;49.470;2023-02-11T13:41:02;-3.57;118.99
70867;HTU21D;58487;53.474;49.470;2023-02-11T13:43:35;-3.62;118.99
70867;HTU21D;58487;53.474;49.470;2023-02-11T13:46:13;-3.77;118.99
70867;HTU21D;58487;53.474;49.470;2023-02-11T13:48:51;-3.81;118.99
70867;HTU21D;58487;53.474;49.470;2023-02-11T13:51:36;-3.76;118.99
70867;HTU21D;58487;53.474;49.470;2023-02-11T13:54:03;-3.80;118.99
70867;HTU21D;58487;53.474;49.470;2023-02-11T13:56:33;-3.86;118.99
70867;HTU21D;58487;53.474;49.470;2023-02-11T13:59:02;-3.98;118.99
70867;HTU21D;58487;53.474;49.470;2023-02-11T14:04:32;-4.06;118.99
70867;HTU21D;58487;53.474;49.470;2023-02-11T14:07:26;-4.01;118.99
70867;HTU21D;58487;53.474;49.470;2023-02-11T14:13:26;-4.14;118.99
70867;HTU21D;58487;53.474;49.470;2023-02-11T14:16:22;-4.23;118.99
70867;HTU21D;58487;53.474;49.470;2023-02-11T14:19:01;-4.30;118.99
70867;HTU21D;58487;53.474;49.470;2023-02-11T14:26:39;-4.45;118.99
70867;HTU21D;58487;53.474;49.470;2023-02-11T14:29:23;-4.50;118.99
70867;HTU21D;58487;53.474;49.470;2023-02-11T14:33:06;-4.58;118.99
70867;HTU21D;58487;53.474;49.470;2023-02-11T14:35:35;-4.61;118.99
70867;HTU21D;58487;53.474;49.470;2023-02-11T14:44:06;-5.44;118.99
70867;HTU21D;58487;53.474;49.470;2023-02-11T14:46:27;-5.30;118.99
70867;HTU21D;58487;53.474;49.470;2023-02-11T14:48:57;-4.94;118.99
70867;HTU21D;58487;53.474;49.470;2023-02-11T14:51:28;-4.71;118.99
70867;HTU21D;58487;53.474;49.470;2023-02-11T14:54:04;-4.75;118.99
70867;HTU21D;58487;53.474;49.470;2023-02-11T14:56:36;-4.79;118.99
70867;HTU21D;58487;53.474;49.470;2023-02-11T14:59:15;-4.73;118.99
70867;HTU21D;58487;53.474;49.470;2023-02-11T15:01:45;-4.78;118.99
70867;HTU21D;58487;53.474;49.470;2023-02-11T15:04:31;-4.72;118.99
70867;HTU21D;58487;53.474;49.470;2023-02-11T15:07:03;-4.71;118.99
70867;HTU21D;58487;53.474;49.470;2023-02-11T15:09:44;-4.83;118.99
70867;HTU21D;58487;53.474;49.470;2023-02-11T15:12:21;-4.79;118.99
70867;HTU21D;58487;53.474;49.470;2023-02-11T15:14:53;-4.86;118.99
70867;HTU21D;58487;53.474;49.470;2023-02-11T15:17:26;-4.87;118.99
70867;HTU21D;58487;53.474;49.470;2023-02-11T15:19:55;-4.91;118.99
70867;HTU21D;58487;53.474;49.470;2023-02-11T15:22:31;-4.91;118.99
70867;HTU21D;58487;53.474;49.470;2023-02-11T15:25:08;-4.99;118.99
70867;HTU21D;58487;53.474;49.470;2023-02-11T15:27:41;-4.90;118.99
70867;HTU21D;58487;53.474;49.470;2023-02-11T15:32:50;-4.87;118.99
70867;HTU21D;58487;53.474;49.470;2023-02-11T15:35:17;-4.84;118.99
70867;HTU21D;58487;53.474;49.470;2023-02-11T15:37:44;-4.84;118.99
70867;HTU21D;58487;53.474;49.470;2023-02-11T15:40:20;-4.89;118.99
70867;HTU21D;58487;53.474;49.470;2023-02-11T15:43:02;-4.90;118.99
70867;HTU21D;58487;53.474;49.470;2023-02-11T15:48:41;-5.19;118.99
70867;HTU21D;58487;53.474;49.470;2023-02-11T15:51:02;-5.33;118.99
70867;HTU21D;58487;53.474;49.470;2023-02-11T15:53:38;-5.28;118.99
70867;HTU21D;58487;53.474;49.470;2023-02-11T15:58:41;-5.39;118.99
70867;HTU21D;58487;53.474;49.470;2023-02-11T16:01:08;-5.33;118.99
70867;HTU21D;58487;53.474;49.470;2023-02-11T16:03:35;-5.48;118.99
70867;HTU21D;58487;53.474;49.470;2023-02-11T16:06:21;-5.83;118.99
70867;HTU21D;58487;53.474;49.470;2023-02-11T16:11:56;-5.83;118.99
70867;HTU21D;58487;53.474;49.470;2023-02-11T16:17:00;-5.79;118.99
70867;HTU21D;58487;53.474;49.470;2023-02-11T16:19:27;-5.71;118.99
70867;HTU21D;58487;53.474;49.470;2023-02-11T16:21:55;-5.69;118.99
70867;HTU21D;58487;53.474;49.470;2023-02-11T16:24:34;-5.74;118.99
70867;HTU21D;58487;53.474;49.470;2023-02-11T16:27:02;-5.96;118.99
70867;HTU21D;58487;53.474;49.470;2023-02-11T16:29:30;-5.60;118.99
70867;HTU21D;58487;53.474;49.470;2023-02-11T16:32:17;-5.33;118.99
70867;HTU21D;58487;53.474;49.470;2023-02-11T16:34:44;-5.43;118.99
70867;HTU21D;58487;53.474;49.470;2023-02-11T16:37:10;-5.44;118.99
70867;HTU21D;58487;53.474;49.470;2023-02-11T16:39:36;-5.50;118.99
70867;HTU21D;58487;53.474;49.470;2023-02-11T16:42:02;-5.38;118.99
70867;HTU21D;58487;53.474;49.470;2023-02-11T16:44:29;-5.65;118.99
70867;HTU21D;58487;53.474;49.470;2023-02-11T16:46:58;-5.55;118.99
70867;HTU21D;58487;53.474;49.470;2023-02-11T16:49:27;-5.50;118.99
70867;HTU21D;58487;53.474;49.470;2023-02-11T16:51:57;-5.49;118.99
70867;HTU21D;58487;53.474;49.470;2023-02-11T16:54:26;-5.46;118.99
70867;HTU21D;58487;53.474;49.470;2023-02-11T16:56:52;-5.48;118.99
70867;HTU21D;58487;53.474;49.470;2023-02-11T16:59:18;-5.46;118.99
70867;HTU21D;58487;53.474;49.470;2023-02-11T17:01:45;-5.39;118.99
70867;HTU21D;58487;53.474;49.470;2023-02-11T17:04:19;-5.69;118.99
70867;HTU21D;58487;53.474;49.470;2023-02-11T17:06:45;-5.91;118.99
70867;HTU21D;58487;53.474;49.470;2023-02-11T17:09:21;-5.93;118.99
70867;HTU21D;58487;53.474;49.470;2023-02-11T17:11:47;-5.91;118.99
70867;HTU21D;58487;53.474;49.470;2023-02-11T17:14:14;-5.88;118.99
70867;HTU21D;58487;53.474;49.470;2023-02-11T17:16:41;-5.79;118.99
70867;HTU21D;58487;53.474;49.470;2023-02-11T17:19:11;-5.69;118.99
70867;HTU21D;58487;53.474;49.470;2023-02-11T17:21:41;-5.67;118.99
70867;HTU21D;58487;53.474;49.470;2023-02-11T17:24:08;-5.77;118.99
70867;HTU21D;58487;53.474;49.470;2023-02-11T17:26:37;-5.76;118.99
70867;HTU21D;58487;53.474;49.470;2023-02-11T17:29:04;-5.78;118.99
70867;HTU21D;58487;53.474;49.470;2023-02-11T17:31:31;-5.96;118.99
70867;HTU21D;58487;53.474;49.470;2023-02-11T17:33:58;-6.00;118.99
70867;HTU21D;58487;53.474;49.470;2023-02-11T17:36:24;-6.01;118.99
70867;HTU21D;58487;53.474;49.470;2023-02-11T17:38:50;-6.12;118.99
70867;HTU21D;58487;53.474;49.470;2023-02-11T17:41:16;-6.13;118.99
70867;HTU21D;58487;53.474;49.470;2023-02-11T17:43:42;-6.20;118.99
70867;HTU21D;58487;53.474;49.470;2023-02-11T17:46:09;-6.12;118.99